Latest Weather Observations for Warburto Point

IDS60801

Issued at 8:41 am CDT Wednesday 23 October 2019 (issued every 10 minutes, with the page automatically refreshed every 10 minutes)

About weather observations | Map of weather stations | Latest weather observations for SA | Other Formats
Station Details ID: 022053 Name: WARBURTO POINT Lat: -34.00 Lon: 137.53 Height: 1.0 m
Data from the previous 72 hours. | See also: Recent months at Warburto Point
Date/Time
CDT
Temp
°C
App
Temp
°C
Dew
Point
°C
Rel
Hum
%
Delta-T
°C
Wind Press
QNH
hPa
Press
MSL
hPa
Rain since
9am
mm
Dir  Spd
km/h
Gust
km/h
Spd
kts
Gust
kts
23/08:30am - - - - - NNE 11 13 6 7 - - -
23/08:00am - - - - - NNW 9 11 5 6 - - -
23/07:30am - - - - - N 9 15 5 8 - - -
23/07:00am - - - - - ENE 19 20 10 11 - - -
23/06:30am - - - - - ENE 20 24 11 13 - - -
23/06:00am - - - - - ENE 20 24 11 13 - - -
23/05:30am - - - - - ENE 22 24 12 13 - - -
23/05:00am - - - - - E 20 22 11 12 - - -
23/04:30am - - - - - E 19 22 10 12 - - -
23/04:00am - - - - - E 17 20 9 11 - - -
23/03:30am - - - - - E 19 24 10 13 - - -
23/03:00am - - - - - E 19 24 10 13 - - -
23/02:30am - - - - - E 22 26 12 14 - - -
23/02:00am - - - - - E 17 19 9 10 - - -
23/01:30am - - - - - E 20 26 11 14 - - -
23/01:00am - - - - - ESE 15 19 8 10 - - -
23/12:30am - - - - - ESE 17 19 9 10 - - -
23/12:00am - - - - - ESE 19 24 10 13 - - -
 
Date/Time
CDT
Temp
°C
App
Temp
°C
Dew
Point
°C
Rel
Hum
%
Delta-T
°C
Wind Press
QNH
hPa
Press
MSL
hPa
Rain since
9am
mm
Dir  Spd
km/h
Gust
km/h
Spd
kts
Gust
kts
22/11:30pm - - - - - ESE 22 28 12 15 - - -
22/11:00pm - - - - - ESE 20 24 11 13 - - -
22/10:30pm - - - - - ESE 20 24 11 13 - - -
22/10:00pm - - - - - ESE 20 24 11 13 - - -
22/09:30pm - - - - - ESE 17 20 9 11 - - -
22/09:00pm - - - - - ESE 17 19 9 10 - - -
22/08:30pm - - - - - ESE 17 20 9 11 - - -
22/08:00pm - - - - - SE 15 17 8 9 - - -
22/07:30pm - - - - - SSE 17 19 9 10 - - -
22/07:00pm - - - - - S 13 19 7 10 - - -
22/06:30pm - - - - - SSW 13 17 7 9 - - -
22/06:00pm - - - - - SSW 11 11 6 6 - - -
22/05:30pm - - - - - WSW 9 11 5 6 - - -
22/05:00pm - - - - - W 9 11 5 6 - - -
22/04:30pm - - - - - NW 9 13 5 7 - - -
22/04:00pm - - - - - NW 9 11 5 6 - - -
22/03:30pm - - - - - NNW 13 17 7 9 - - -
22/03:00pm - - - - - NNW 11 15 6 8 - - -
22/02:30pm - - - - - NNW 11 13 6 7 - - -
22/02:00pm - - - - - NNW 11 13 6 7 - - -
22/01:30pm - - - - - NNW 11 13 6 7 - - -
22/01:00pm - - - - - N 13 15 7 8 - - -
22/12:30pm - - - - - N 13 17 7 9 - - -
22/12:00pm - - - - - N 15 19 8 10 - - -
22/11:30am - - - - - NNW 17 20 9 11 - - -
22/11:00am - - - - - NNW 15 19 8 10 - - -
22/10:30am - - - - - N 13 17 7 9 - - -
22/10:00am - - - - - N 11 15 6 8 - - -
22/09:30am - - - - - N 11 13 6 7 - - -
22/09:00am - - - - - NNE 9 13 5 7 - - -
22/08:30am - - - - - NE 17 20 9 11 - - -
22/08:00am - - - - - NE 9 11 5 6 - - -
22/07:30am - - - - - ENE 9 13 5 7 - - -
22/07:00am - - - - - E 9 15 5 8 - - -
22/06:30am - - - - - E 4 9 2 5 - - -
22/06:00am - - - - - E 9 13 5 7 - - -
22/05:30am - - - - - ENE 13 15 7 8 - - -
22/05:00am - - - - - NE 15 19 8 10 - - -
22/04:30am - - - - - ENE 19 20 10 11 - - -
22/04:00am - - - - - E 20 22 11 12 - - -
22/03:30am - - - - - E 20 24 11 13 - - -
22/03:00am - - - - - E 20 26 11 14 - - -
22/02:30am - - - - - E 19 22 10 12 - - -
22/02:00am - - - - - E 19 20 10 11 - - -
22/01:30am - - - - - ESE 15 17 8 9 - - -
22/01:00am - - - - - ESE 17 22 9 12 - - -
22/12:30am - - - - - ESE 17 19 9 10 - - -
22/12:00am - - - - - ESE 17 22 9 12 - - -
 
Date/Time
CDT
Temp
°C
App
Temp
°C
Dew
Point
°C
Rel
Hum
%
Delta-T
°C
Wind Press
QNH
hPa
Press
MSL
hPa
Rain since
9am
mm
Dir  Spd
km/h
Gust
km/h
Spd
kts
Gust
kts
21/11:30pm - - - - - ESE 17 19 9 10 - - -
21/11:00pm - - - - - ESE 15 19 8 10 - - -
21/10:30pm - - - - - ESE 20 26 11 14 - - -
21/10:00pm - - - - - ESE 15 17 8 9 - - -
21/09:30pm - - - - - ESE 17 19 9 10 - - -
21/09:00pm - - - - - ESE 17 19 9 10 - - -
21/08:30pm - - - - - SE 17 19 9 10 - - -
21/08:00pm - - - - - SE 13 15 7 8 - - -
21/07:30pm - - - - - SE 15 17 8 9 - - -
21/07:00pm - - - - - S 15 19 8 10 - - -
21/06:30pm - - - - - SSW 13 17 7 9 - - -
21/06:00pm - - - - - SW 11 13 6 7 - - -
21/05:30pm - - - - - WNW 7 9 4 5 - - -
21/05:00pm - - - - - NW 9 11 5 6 - - -
21/04:30pm - - - - - NW 11 13 6 7 - - -
21/04:00pm - - - - - NNW 11 13 6 7 - - -
21/03:30pm - - - - - N 11 13 6 7 - - -
21/03:00pm - - - - - N 11 15 6 8 - - -
21/02:30pm - - - - - N 13 15 7 8 - - -
21/02:00pm - - - - - N 13 15 7 8 - - -
21/01:30pm - - - - - N 15 17 8 9 - - -
21/01:00pm - - - - - N 13 17 7 9 - - -
21/12:30pm - - - - - N 17 20 9 11 - - -
21/12:00pm - - - - - N 19 22 10 12 - - -
21/11:30am - - - - - N 19 20 10 11 - - -
21/11:00am - - - - - N 17 20 9 11 - - -
21/10:30am - - - - - N 19 22 10 12 - - -
21/10:00am - - - - - N 15 19 8 10 - - -
21/09:30am - - - - - NNE 17 19 9 10 - - -
21/09:00am - - - - - NNE 15 20 8 11 - - -
21/08:30am - - - - - NE 13 17 7 9 - - -
21/08:00am - - - - - ENE 11 13 6 7 - - -
21/07:30am - - - - - E 13 15 7 8 - - -
21/07:00am - - - - - E 15 17 8 9 - - -
21/06:30am - - - - - E 13 15 7 8 - - -
21/06:00am - - - - - E 17 19 9 10 - - -
21/05:30am - - - - - E 17 19 9 10 - - -
21/05:00am - - - - - E 15 17 8 9 - - -
21/04:30am - - - - - E 15 17 8 9 - - -
21/04:00am - - - - - E 13 15 7 8 - - -
21/03:30am - - - - - ESE 9 13 5 7 - - -
21/03:00am - - - - - E 13 17 7 9 - - -
21/02:30am - - - - - ESE 17 20 9 11 - - -
21/02:00am - - - - - E 19 26 10 14 - - -
21/01:30am - - - - - ESE 20 28 11 15 - - -
21/01:00am - - - - - ESE 20 28 11 15 - - -
21/12:30am - - - - - ESE 17 24 9 13 - - -
21/12:00am - - - - - ESE 17 20 9 11 - - -
 
Date/Time
CDT
Temp
°C
App
Temp
°C
Dew
Point
°C
Rel
Hum
%
Delta-T
°C
Wind Press
QNH
hPa
Press
MSL
hPa
Rain since
9am
mm
Dir  Spd
km/h
Gust
km/h
Spd
kts
Gust
kts
20/11:30pm - - - - - SE 22 30 12 16 - - -
20/11:00pm - - - - - SE 28 33 15 18 - - -
20/10:30pm - - - - - SE 26 32 14 17 - - -
20/10:00pm - - - - - SSE 24 32 13 17 - - -
20/09:30pm - - - - - SSE 24 30 13 16 - - -
20/09:00pm - - - - - SE 20 26 11 14 - - -
20/08:30pm - - - - - SE 17 19 9 10 - - -
20/08:00pm - - - - - SSE 17 24 9 13 - - -
20/07:30pm - - - - - SSW 28 33 15 18 - - -
20/07:00pm - - - - - SSW 28 35 15 19 - - -
20/06:30pm - - - - - SSW 28 33 15 18 - - -
20/06:00pm - - - - - SW 28 33 15 18 - - -
20/05:30pm - - - - - SW 26 32 14 17 - - -
20/05:00pm - - - - - SW 24 32 13 17 - - -
20/04:30pm - - - - - SW 24 32 13 17 - - -
20/04:00pm - - - - - SW 26 33 14 18 - - -
20/03:30pm - - - - - SW 24 30 13 16 - - -
20/03:00pm - - - - - SW 22 30 12 16 - - -
20/02:30pm - - - - - SW 20 28 11 15 - - -
20/02:00pm - - - - - SW 22 28 12 15 - - -
20/01:30pm - - - - - WSW 20 26 11 14 - - -
20/01:00pm - - - - - WSW 20 28 11 15 - - -
20/12:30pm - - - - - W 20 26 11 14 - - -
20/12:00pm - - - - - W 17 20 9 11 - - -
20/11:30am - - - - - W 15 19 8 10 - - -
20/11:00am - - - - - W 15 17 8 9 - - -
20/10:30am - - - - - SW 13 15 7 8 - - -
20/10:00am - - - - - S 11 15 6 8 - - -
20/09:30am - - - - - SSE 13 15 7 8 - - -
20/09:00am - - - - - SE 15 19 8 10 - - -

Other formats

Comma delimited format used in spreadsheet applications
http://www.bom.gov.au/fwo/IDS60801/IDS60801.94666.axf

JavaScript Object Notation format (JSON) in row-major order
http://www.bom.gov.au/fwo/IDS60801/IDS60801.94666.json

Data quality

Most of these data are generated automatically and are frequently updated. Quality checks on data are not normally performed. It is possible for incorrect values to appear. Refer to information at About Latest Weather Observations and please check the disclaimer before using these data.